Litchfield, MN

12:54 AM CST on February 27, 2017 (GMT -0600)
Litchfield Municipal

Weather History for KLJF - March, 2012

Change the Weather History Date:

Tuesday, March 6, 2012

  Actual Average Record
Temperature  
Mean Temperature 36 °F -  
Max Temperature 48 °F 36 °F 71 °F (1987)
Min Temperature 24 °F 14 °F -15 °F (1989)
Degree Days  
Heating Degree Days 29    
Moisture  
Dew Point 31 °F    
Average Humidity 80    
Maximum Humidity 93    
Minimum Humidity 66    
Precipitation  
Precipitation 0.00 in - - ()
Sea Level Pressure  
Sea Level Pressure 29.60 in    
Wind  
Wind Speed 7 mph (SE)    
Max Wind Speed 12 mph    
Max Gust Speed -    
Visibility 10 miles    
Events      
Averages and records for this station are not official NWS values.
T = Trace of Precipitation, MM = Missing Value Source: NWS Daily Summary

Daily Weather History Graph

Daily Weather History Graph

Search for Another Location

Airport or City:

Trip Planner

Search our weather history database for the weather conditions in past years. The results will help you decide how hot, cold, wet, or windy it might be!

Date:

Astronomy

Mar. 06, 2012 Rise Set
Actual Time 6:46 AM CST 6:12 PM CST
Civil Twilight 6:16 AM CST 6:42 PM CST
Nautical Twilight 5:42 AM CST 7:16 PM CST
Astronomical Twilight 5:08 AM CST 7:50 PM CST
Moon 4:38 PM CST (3/6) 5:26 AM CST (3/6)
Length of Visible Light 12h 25m
Length of Day
11h 26m
Waxing Gibbous, 96% of the Moon is Illuminated
Mar 6
Waxing Gibbous
Mar 8
Full
Mar 14
Last Quarter
Mar 22
New
Mar 30
First Quarter

Hourly Weather History & Observations

Time (CST) Temp. Windchill Dew Point Humidity Pressure Visibility Wind Dir Wind Speed Gust Speed Precip Events Conditions
12:13 AM 33.8 °F 27.7 °F 28.4 °F 81% 29.77 in 10.0 mi SSE 6.9 mph - N/A   Clear
12:33 AM 33.8 °F 27.7 °F 28.4 °F 81% 29.76 in 10.0 mi SSE 6.9 mph - N/A   Clear
12:53 AM 33.8 °F 27.7 °F 28.4 °F 81% 29.76 in 10.0 mi SSE 6.9 mph - N/A   Clear
1:13 AM 33.8 °F 27.7 °F 28.4 °F 81% 29.75 in 10.0 mi SSE 6.9 mph - N/A   Clear
1:33 AM 33.8 °F 27.7 °F 28.4 °F 81% 29.74 in 10.0 mi SSE 6.9 mph - N/A   Clear
1:53 AM 32.0 °F 25.6 °F 28.4 °F 87% 29.73 in 10.0 mi SSE 6.9 mph - N/A   Clear
2:13 AM 32.0 °F 25.6 °F 28.4 °F 87% 29.72 in 10.0 mi SSE 6.9 mph - N/A   Clear
2:33 AM 32.0 °F 25.6 °F 28.4 °F 87% 29.70 in 10.0 mi SSE 6.9 mph - N/A   Clear
2:53 AM 32.0 °F 25.6 °F 28.4 °F 87% 29.69 in 10.0 mi SSE 6.9 mph - N/A   Clear
3:13 AM 32.0 °F 25.6 °F 28.4 °F 87% 29.68 in 10.0 mi SSE 6.9 mph - N/A   Clear
3:33 AM 32.0 °F 25.6 °F 26.6 °F 80% 29.67 in 10.0 mi SSE 6.9 mph - N/A   Clear
3:53 AM 32.0 °F 25.6 °F 26.6 °F 80% 29.66 in 10.0 mi SSE 6.9 mph - N/A   Clear
4:13 AM 32.0 °F 25.6 °F 26.6 °F 80% 29.66 in 10.0 mi SSE 6.9 mph - N/A   Clear
4:34 AM 32.0 °F 24.8 °F 26.6 °F 80% 29.66 in 10.0 mi SE 8.1 mph - N/A   Clear
4:53 AM 28.4 °F 21.2 °F 24.8 °F 86% 29.65 in 10.0 mi SE 6.9 mph - N/A   Clear
5:13 AM 26.6 °F 19.1 °F 24.8 °F 93% 29.64 in 10.0 mi ESE 6.9 mph - N/A   Clear
5:32 AM 26.6 °F 18.2 °F 24.8 °F 93% 29.64 in 10.0 mi ESE 8.1 mph - N/A   Clear
5:53 AM 26.6 °F 17.5 °F 24.8 °F 93% 29.63 in 10.0 mi ESE 9.2 mph - N/A   Clear
6:53 AM 26.6 °F 19.1 °F 24.8 °F 93% 29.62 in 10.0 mi ESE 6.9 mph - N/A   Clear
7:13 AM 24.8 °F 16.9 °F 23.0 °F 93% 29.62 in 10.0 mi SE 6.9 mph - N/A   Clear
7:33 AM 28.4 °F 19.7 °F 24.8 °F 86% 29.61 in 10.0 mi SE 9.2 mph - N/A   Clear
7:53 AM 28.4 °F 19.1 °F 26.6 °F 93% 29.60 in 10.0 mi SE 10.4 mph - N/A   Clear
8:13 AM 30.2 °F 21.3 °F 26.6 °F 86% 29.60 in 10.0 mi SE 10.4 mph - N/A   Clear
8:33 AM 30.2 °F 21.9 °F 26.6 °F 86% 29.59 in 10.0 mi SE 9.2 mph - N/A   Clear
8:53 AM 30.2 °F 21.9 °F 26.6 °F 86% 29.58 in 10.0 mi SE 9.2 mph - N/A   Clear
9:13 AM 32.0 °F 24.2 °F 26.6 °F 80% 29.58 in 10.0 mi SE 9.2 mph - N/A   Clear
9:33 AM 33.8 °F 26.4 °F 28.4 °F 81% 29.57 in 10.0 mi SE 9.2 mph - N/A   Clear
9:53 AM 33.8 °F 27.0 °F 28.4 °F 81% 29.57 in 10.0 mi SE 8.1 mph - N/A   Clear
10:13 AM 35.6 °F 28.0 °F 28.4 °F 75% 29.57 in 10.0 mi SE 10.4 mph - N/A   Clear
10:33 AM 35.6 °F 27.5 °F 30.2 °F 81% 29.55 in 10.0 mi SE 11.5 mph - N/A   Clear
10:53 AM 37.4 °F 30.3 °F 30.2 °F 75% 29.55 in 10.0 mi SE 10.4 mph - N/A   Clear
11:13 AM 37.4 °F 31.4 °F 30.2 °F 75% 29.56 in 10.0 mi SE 8.1 mph - N/A   Clear
11:33 AM 37.4 °F 30.3 °F 30.2 °F 75% 29.55 in 10.0 mi SE 10.4 mph - N/A   Clear
11:53 AM 37.4 °F 31.4 °F 32.0 °F 81% 29.54 in 10.0 mi SE 8.1 mph - N/A   Clear
12:13 PM 39.2 °F 33.6 °F 32.0 °F 75% 29.54 in 10.0 mi SE 8.1 mph - N/A   Clear
12:33 PM 41.0 °F 35.2 °F 33.8 °F 76% 29.54 in 10.0 mi SE 9.2 mph - N/A   Clear
12:53 PM 41.0 °F 35.8 °F 33.8 °F 76% 29.53 in 10.0 mi SE 8.1 mph - N/A   Clear
1:13 PM 42.8 °F 38.6 °F 33.8 °F 70% 29.52 in 10.0 mi SSE 6.9 mph - N/A   Clear
1:33 PM 44.6 °F 42.2 °F 33.8 °F 66% 29.52 in 10.0 mi SSE 4.6 mph - N/A   Clear
1:53 PM 44.6 °F 40.7 °F 33.8 °F 66% 29.51 in 10.0 mi SSE 6.9 mph - N/A   Clear
2:13 PM 44.6 °F 42.2 °F 35.6 °F 71% 29.51 in 10.0 mi SSE 4.6 mph - N/A   Clear
2:33 PM 46.4 °F 44.3 °F 35.6 °F 66% 29.52 in 10.0 mi SSE 4.6 mph - N/A   Clear
2:53 PM 46.4 °F 45.2 °F 37.4 °F 71% 29.52 in 10.0 mi SSE 3.5 mph - N/A   Clear
3:13 PM 46.4 °F - 37.4 °F 71% 29.53 in 10.0 mi Calm Calm - N/A   Clear
3:33 PM 46.4 °F - 37.4 °F 71% 29.53 in 10.0 mi Calm Calm - N/A   Clear
3:53 PM 46.4 °F - 37.4 °F 71% - 10.0 mi Calm Calm - N/A   Clear
4:13 PM 48.2 °F - 37.4 °F 66% 29.54 in 10.0 mi Calm Calm - N/A   Clear
4:33 PM 48.2 °F - 37.4 °F 66% 29.54 in 10.0 mi Calm Calm - N/A   Clear
5:13 PM 46.4 °F - 37.4 °F 71% 29.54 in 10.0 mi Calm Calm - N/A   Clear
5:33 PM 46.4 °F - 37.4 °F 71% 29.54 in 10.0 mi Calm Calm - N/A   Clear
5:53 PM 44.6 °F - 39.2 °F 81% 29.55 in 10.0 mi Calm Calm - N/A   Clear
6:13 PM 44.6 °F 42.2 °F 39.2 °F 81% 29.55 in 10.0 mi SSE 4.6 mph - N/A   Clear
6:33 PM 44.6 °F 43.1 °F 39.2 °F 81% 29.56 in 10.0 mi SSE 3.5 mph - N/A   Clear
6:52 PM 44.6 °F 42.2 °F 39.2 °F 81% 29.55 in 10.0 mi SSE 4.6 mph - N/A   Clear
7:13 PM 44.6 °F 43.1 °F 39.2 °F 81% 29.55 in 10.0 mi SSE 3.5 mph - N/A   Clear
7:33 PM 42.8 °F 40.1 °F 37.4 °F 81% 29.54 in 10.0 mi SSE 4.6 mph - N/A   Clear
8:13 PM 44.6 °F 41.4 °F 39.2 °F 81% 29.54 in 10.0 mi SSE 5.8 mph - N/A   Clear
8:33 PM 42.8 °F 41.1 °F 39.2 °F 87% 29.54 in 10.0 mi SSE 3.5 mph - N/A   Clear
9:13 PM 46.4 °F 44.3 °F 42.8 °F 87% 29.55 in 10.0 mi SSE 4.6 mph - N/A   Clear
9:33 PM 46.4 °F 44.3 °F 42.8 °F 87% 29.55 in 10.0 mi SSE 4.6 mph - N/A   Clear
9:53 PM 46.4 °F 44.3 °F 41.0 °F 81% 29.55 in 10.0 mi South 4.6 mph - N/A   Clear
10:13 PM 46.4 °F 43.5 °F 41.0 °F 81% 29.55 in 10.0 mi South 5.8 mph - N/A   Clear
10:33 PM 44.6 °F 43.1 °F 39.2 °F 81% 29.55 in 10.0 mi South 3.5 mph - N/A   Clear
10:53 PM 44.6 °F 41.4 °F 39.2 °F 81% 29.54 in 10.0 mi South 5.8 mph - N/A   Clear
11:13 PM 44.6 °F 43.1 °F 37.4 °F 76% 29.54 in 10.0 mi South 3.5 mph - N/A   Clear
11:33 PM 44.6 °F 41.4 °F 37.4 °F 76% 29.54 in 10.0 mi SSE 5.8 mph - N/A   Clear
11:53 PM 42.8 °F 40.1 °F 37.4 °F 81% 29.54 in 10.0 mi South 4.6 mph - N/A   Clear